sensor_id;sensor_type;location;lat;lon;timestamp;P1;durP1;ratioP1;P2;durP2;ratioP2
9467;SDS011;4772;52.382;9.752;2022-11-25T00:00:48;14.23;;;6.43;;
9467;SDS011;4772;52.382;9.752;2022-11-25T00:03:14;11.13;;;5.50;;
9467;SDS011;4772;52.382;9.752;2022-11-25T00:05:40;14.03;;;5.87;;
9467;SDS011;4772;52.382;9.752;2022-11-25T00:08:06;11.70;;;6.10;;
9467;SDS011;4772;52.382;9.752;2022-11-25T00:10:32;11.70;;;5.50;;
9467;SDS011;4772;52.382;9.752;2022-11-25T00:12:58;11.33;;;5.20;;
9467;SDS011;4772;52.382;9.752;2022-11-25T00:15:24;14.17;;;5.37;;
9467;SDS011;4772;52.382;9.752;2022-11-25T00:17:50;8.70;;;5.60;;
9467;SDS011;4772;52.382;9.752;2022-11-25T00:20:17;13.23;;;5.37;;
9467;SDS011;4772;52.382;9.752;2022-11-25T00:22:46;13.20;;;5.53;;
9467;SDS011;4772;52.382;9.752;2022-11-25T00:25:12;16.47;;;5.00;;
9467;SDS011;4772;52.382;9.752;2022-11-25T00:27:38;15.47;;;4.57;;
9467;SDS011;4772;52.382;9.752;2022-11-25T00:30:04;12.67;;;4.33;;
9467;SDS011;4772;52.382;9.752;2022-11-25T00:32:30;9.57;;;4.73;;
9467;SDS011;4772;52.382;9.752;2022-11-25T00:34:56;8.50;;;4.70;;
9467;SDS011;4772;52.382;9.752;2022-11-25T00:37:22;11.23;;;5.40;;
9467;SDS011;4772;52.382;9.752;2022-11-25T00:39:48;9.93;;;5.00;;
9467;SDS011;4772;52.382;9.752;2022-11-25T00:42:14;14.43;;;5.30;;
9467;SDS011;4772;52.382;9.752;2022-11-25T00:44:59;10.93;;;5.30;;
9467;SDS011;4772;52.382;9.752;2022-11-25T00:47:25;12.87;;;5.70;;
9467;SDS011;4772;52.382;9.752;2022-11-25T00:49:52;12.60;;;5.60;;
9467;SDS011;4772;52.382;9.752;2022-11-25T00:52:23;12.83;;;5.70;;
9467;SDS011;4772;52.382;9.752;2022-11-25T00:54:49;13.47;;;5.27;;
9467;SDS011;4772;52.382;9.752;2022-11-25T00:57:17;15.23;;;5.80;;
9467;SDS011;4772;52.382;9.752;2022-11-25T00:59:43;13.50;;;5.57;;
9467;SDS011;4772;52.382;9.752;2022-11-25T01:02:10;11.93;;;5.50;;
9467;SDS011;4772;52.382;9.752;2022-11-25T01:04:36;15.37;;;5.43;;
9467;SDS011;4772;52.382;9.752;2022-11-25T01:07:02;11.60;;;5.33;;
9467;SDS011;4772;52.382;9.752;2022-11-25T01:09:28;17.77;;;5.33;;
9467;SDS011;4772;52.382;9.752;2022-11-25T01:11:55;10.23;;;5.20;;
9467;SDS011;4772;52.382;9.752;2022-11-25T01:14:21;12.60;;;5.07;;
9467;SDS011;4772;52.382;9.752;2022-11-25T01:16:48;11.10;;;4.57;;
9467;SDS011;4772;52.382;9.752;2022-11-25T01:19:14;10.50;;;4.63;;
9467;SDS011;4772;52.382;9.752;2022-11-25T01:21:40;10.60;;;4.47;;
9467;SDS011;4772;52.382;9.752;2022-11-25T01:24:07;13.00;;;4.43;;
9467;SDS011;4772;52.382;9.752;2022-11-25T01:26:33;11.17;;;4.83;;
9467;SDS011;4772;52.382;9.752;2022-11-25T01:29:00;9.70;;;4.07;;
9467;SDS011;4772;52.382;9.752;2022-11-25T01:31:28;16.10;;;5.00;;
9467;SDS011;4772;52.382;9.752;2022-11-25T01:33:55;12.97;;;4.87;;
9467;SDS011;4772;52.382;9.752;2022-11-25T01:36:22;11.30;;;5.10;;
9467;SDS011;4772;52.382;9.752;2022-11-25T01:38:49;16.63;;;4.90;;
9467;SDS011;4772;52.382;9.752;2022-11-25T01:41:15;12.90;;;5.50;;
9467;SDS011;4772;52.382;9.752;2022-11-25T01:43:41;16.50;;;4.90;;
9467;SDS011;4772;52.382;9.752;2022-11-25T01:46:20;10.20;;;4.40;;
9467;SDS011;4772;52.382;9.752;2022-11-25T01:48:48;12.33;;;5.23;;
9467;SDS011;4772;52.382;9.752;2022-11-25T01:51:23;13.03;;;4.87;;
9467;SDS011;4772;52.382;9.752;2022-11-25T01:53:51;11.20;;;5.53;;
9467;SDS011;4772;52.382;9.752;2022-11-25T01:56:18;10.03;;;4.97;;
9467;SDS011;4772;52.382;9.752;2022-11-25T01:58:44;7.87;;;4.67;;
9467;SDS011;4772;52.382;9.752;2022-11-25T02:01:11;11.13;;;4.90;;
9467;SDS011;4772;52.382;9.752;2022-11-25T02:03:39;14.97;;;4.73;;
9467;SDS011;4772;52.382;9.752;2022-11-25T02:06:11;11.87;;;4.13;;
9467;SDS011;4772;52.382;9.752;2022-11-25T02:08:39;10.77;;;4.20;;
9467;SDS011;4772;52.382;9.752;2022-11-25T02:11:06;14.73;;;4.73;;
9467;SDS011;4772;52.382;9.752;2022-11-25T02:13:32;14.83;;;4.63;;
9467;SDS011;4772;52.382;9.752;2022-11-25T02:15:58;17.03;;;5.10;;
9467;SDS011;4772;52.382;9.752;2022-11-25T02:18:24;11.13;;;4.70;;
9467;SDS011;4772;52.382;9.752;2022-11-25T02:20:51;12.50;;;4.60;;
9467;SDS011;4772;52.382;9.752;2022-11-25T02:23:18;11.87;;;4.00;;
9467;SDS011;4772;52.382;9.752;2022-11-25T02:25:49;14.37;;;4.27;;
9467;SDS011;4772;52.382;9.752;2022-11-25T02:28:17;11.10;;;3.53;;
9467;SDS011;4772;52.382;9.752;2022-11-25T02:30:44;14.87;;;4.13;;
9467;SDS011;4772;52.382;9.752;2022-11-25T02:33:11;11.97;;;4.30;;
9467;SDS011;4772;52.382;9.752;2022-11-25T02:38:07;13.37;;;3.87;;
9467;SDS011;4772;52.382;9.752;2022-11-25T02:40:36;11.17;;;3.33;;
9467;SDS011;4772;52.382;9.752;2022-11-25T02:43:03;10.90;;;3.53;;
9467;SDS011;4772;52.382;9.752;2022-11-25T02:45:34;9.67;;;4.23;;
9467;SDS011;4772;52.382;9.752;2022-11-25T02:48:02;7.67;;;3.40;;
9467;SDS011;4772;52.382;9.752;2022-11-25T02:50:28;12.53;;;3.23;;
9467;SDS011;4772;52.382;9.752;2022-11-25T02:52:54;11.40;;;4.00;;
9467;SDS011;4772;52.382;9.752;2022-11-25T02:55:20;7.80;;;3.40;;
9467;SDS011;4772;52.382;9.752;2022-11-25T02:57:46;11.20;;;3.80;;
9467;SDS011;4772;52.382;9.752;2022-11-25T03:00:12;14.30;;;3.97;;
9467;SDS011;4772;52.382;9.752;2022-11-25T03:02:38;12.67;;;3.73;;
9467;SDS011;4772;52.382;9.752;2022-11-25T03:05:04;9.83;;;3.53;;
9467;SDS011;4772;52.382;9.752;2022-11-25T03:07:30;16.37;;;3.90;;
9467;SDS011;4772;52.382;9.752;2022-11-25T03:09:56;9.97;;;3.07;;
9467;SDS011;4772;52.382;9.752;2022-11-25T03:12:22;7.67;;;3.43;;
9467;SDS011;4772;52.382;9.752;2022-11-25T03:14:48;16.17;;;3.80;;
9467;SDS011;4772;52.382;9.752;2022-11-25T03:17:14;13.70;;;3.93;;
9467;SDS011;4772;52.382;9.752;2022-11-25T03:19:40;11.90;;;4.10;;
9467;SDS011;4772;52.382;9.752;2022-11-25T03:22:06;11.83;;;3.53;;
9467;SDS011;4772;52.382;9.752;2022-11-25T03:24:32;11.27;;;3.53;;
9467;SDS011;4772;52.382;9.752;2022-11-25T03:26:58;13.33;;;3.97;;
9467;SDS011;4772;52.382;9.752;2022-11-25T03:29:24;9.63;;;3.27;;
9467;SDS011;4772;52.382;9.752;2022-11-25T03:31:50;13.47;;;4.13;;
9467;SDS011;4772;52.382;9.752;2022-11-25T03:34:16;12.63;;;3.97;;
9467;SDS011;4772;52.382;9.752;2022-11-25T03:36:42;10.87;;;3.83;;
9467;SDS011;4772;52.382;9.752;2022-11-25T03:39:08;11.40;;;4.03;;
9467;SDS011;4772;52.382;9.752;2022-11-25T03:41:34;13.47;;;3.60;;
9467;SDS011;4772;52.382;9.752;2022-11-25T03:44:00;10.47;;;3.80;;
9467;SDS011;4772;52.382;9.752;2022-11-25T03:46:26;10.13;;;3.53;;
9467;SDS011;4772;52.382;9.752;2022-11-25T03:48:52;11.27;;;3.40;;
9467;SDS011;4772;52.382;9.752;2022-11-25T03:51:18;11.43;;;3.53;;
9467;SDS011;4772;52.382;9.752;2022-11-25T03:53:44;10.50;;;4.70;;
9467;SDS011;4772;52.382;9.752;2022-11-25T03:56:10;12.47;;;3.90;;
9467;SDS011;4772;52.382;9.752;2022-11-25T03:58:36;12.37;;;3.47;;
9467;SDS011;4772;52.382;9.752;2022-11-25T04:01:02;12.00;;;4.13;;
9467;SDS011;4772;52.382;9.752;2022-11-25T04:03:29;16.50;;;3.60;;
9467;SDS011;4772;52.382;9.752;2022-11-25T04:05:55;10.93;;;3.50;;
9467;SDS011;4772;52.382;9.752;2022-11-25T04:08:21;9.67;;;3.80;;
9467;SDS011;4772;52.382;9.752;2022-11-25T04:10:50;11.90;;;3.20;;
9467;SDS011;4772;52.382;9.752;2022-11-25T04:13:16;12.03;;;3.60;;
9467;SDS011;4772;52.382;9.752;2022-11-25T04:15:46;9.43;;;3.20;;
9467;SDS011;4772;52.382;9.752;2022-11-25T04:18:13;11.23;;;3.57;;
9467;SDS011;4772;52.382;9.752;2022-11-25T04:20:39;13.07;;;4.30;;
9467;SDS011;4772;52.382;9.752;2022-11-25T04:23:05;9.70;;;3.43;;
9467;SDS011;4772;52.382;9.752;2022-11-25T04:25:32;14.27;;;3.80;;
9467;SDS011;4772;52.382;9.752;2022-11-25T04:27:58;13.77;;;3.97;;
9467;SDS011;4772;52.382;9.752;2022-11-25T04:30:24;13.83;;;3.93;;
9467;SDS011;4772;52.382;9.752;2022-11-25T04:32:51;10.60;;;3.93;;
9467;SDS011;4772;52.382;9.752;2022-11-25T04:35:17;9.37;;;3.77;;
9467;SDS011;4772;52.382;9.752;2022-11-25T04:37:43;12.87;;;3.83;;
9467;SDS011;4772;52.382;9.752;2022-11-25T04:40:09;14.00;;;3.77;;
9467;SDS011;4772;52.382;9.752;2022-11-25T04:42:35;10.07;;;4.00;;
9467;SDS011;4772;52.382;9.752;2022-11-25T04:45:05;13.40;;;4.23;;
9467;SDS011;4772;52.382;9.752;2022-11-25T04:47:31;12.13;;;4.03;;
9467;SDS011;4772;52.382;9.752;2022-11-25T04:49:57;15.03;;;3.83;;
9467;SDS011;4772;52.382;9.752;2022-11-25T04:52:23;14.13;;;4.00;;
9467;SDS011;4772;52.382;9.752;2022-11-25T04:54:49;11.47;;;4.10;;
9467;SDS011;4772;52.382;9.752;2022-11-25T04:57:15;14.00;;;4.73;;
9467;SDS011;4772;52.382;9.752;2022-11-25T04:59:42;14.47;;;3.80;;
9467;SDS011;4772;52.382;9.752;2022-11-25T05:02:15;11.97;;;4.30;;
9467;SDS011;4772;52.382;9.752;2022-11-25T05:04:42;15.97;;;3.87;;
9467;SDS011;4772;52.382;9.752;2022-11-25T05:07:09;12.47;;;3.90;;
9467;SDS011;4772;52.382;9.752;2022-11-25T05:09:35;13.73;;;4.30;;
9467;SDS011;4772;52.382;9.752;2022-11-25T05:12:02;15.47;;;4.77;;
9467;SDS011;4772;52.382;9.752;2022-11-25T05:14:28;14.77;;;4.43;;
9467;SDS011;4772;52.382;9.752;2022-11-25T05:16:54;12.60;;;3.73;;
9467;SDS011;4772;52.382;9.752;2022-11-25T05:19:20;12.33;;;4.30;;
9467;SDS011;4772;52.382;9.752;2022-11-25T05:21:46;11.67;;;4.20;;
9467;SDS011;4772;52.382;9.752;2022-11-25T05:24:12;13.73;;;3.87;;
9467;SDS011;4772;52.382;9.752;2022-11-25T05:26:38;14.33;;;4.23;;
9467;SDS011;4772;52.382;9.752;2022-11-25T05:29:04;15.43;;;3.80;;
9467;SDS011;4772;52.382;9.752;2022-11-25T05:31:30;13.77;;;4.10;;
9467;SDS011;4772;52.382;9.752;2022-11-25T05:33:58;17.40;;;4.17;;
9467;SDS011;4772;52.382;9.752;2022-11-25T05:36:24;11.43;;;4.07;;
9467;SDS011;4772;52.382;9.752;2022-11-25T05:38:50;13.40;;;3.90;;
9467;SDS011;4772;52.382;9.752;2022-11-25T05:41:16;18.77;;;4.33;;
9467;SDS011;4772;52.382;9.752;2022-11-25T05:43:42;12.63;;;3.83;;
9467;SDS011;4772;52.382;9.752;2022-11-25T05:46:08;12.13;;;3.97;;
9467;SDS011;4772;52.382;9.752;2022-11-25T05:48:35;14.33;;;4.10;;
9467;SDS011;4772;52.382;9.752;2022-11-25T05:51:01;14.17;;;4.20;;
9467;SDS011;4772;52.382;9.752;2022-11-25T05:53:28;13.90;;;4.40;;
9467;SDS011;4772;52.382;9.752;2022-11-25T05:55:54;10.60;;;3.90;;
9467;SDS011;4772;52.382;9.752;2022-11-25T05:58:21;10.70;;;3.67;;
9467;SDS011;4772;52.382;9.752;2022-11-25T06:00:47;13.73;;;4.37;;
9467;SDS011;4772;52.382;9.752;2022-11-25T06:03:13;14.20;;;3.77;;
9467;SDS011;4772;52.382;9.752;2022-11-25T06:05:39;14.00;;;4.00;;
9467;SDS011;4772;52.382;9.752;2022-11-25T06:08:05;8.27;;;4.00;;
9467;SDS011;4772;52.382;9.752;2022-11-25T06:10:31;13.67;;;4.60;;
9467;SDS011;4772;52.382;9.752;2022-11-25T06:12:57;14.97;;;4.63;;
9467;SDS011;4772;52.382;9.752;2022-11-25T06:15:23;9.87;;;3.97;;
9467;SDS011;4772;52.382;9.752;2022-11-25T06:17:50;11.40;;;3.97;;
9467;SDS011;4772;52.382;9.752;2022-11-25T06:20:16;12.90;;;4.07;;
9467;SDS011;4772;52.382;9.752;2022-11-25T06:22:42;9.63;;;3.57;;
9467;SDS011;4772;52.382;9.752;2022-11-25T06:25:08;9.07;;;3.87;;
9467;SDS011;4772;52.382;9.752;2022-11-25T06:27:34;11.37;;;3.40;;
9467;SDS011;4772;52.382;9.752;2022-11-25T06:30:00;12.60;;;3.73;;
9467;SDS011;4772;52.382;9.752;2022-11-25T06:32:26;8.93;;;3.63;;
9467;SDS011;4772;52.382;9.752;2022-11-25T06:34:52;15.67;;;4.17;;
9467;SDS011;4772;52.382;9.752;2022-11-25T06:37:18;12.03;;;3.93;;
9467;SDS011;4772;52.382;9.752;2022-11-25T06:39:44;11.30;;;3.37;;
9467;SDS011;4772;52.382;9.752;2022-11-25T06:42:10;10.83;;;3.77;;
9467;SDS011;4772;52.382;9.752;2022-11-25T06:44:36;9.87;;;3.70;;
9467;SDS011;4772;52.382;9.752;2022-11-25T06:47:02;10.17;;;3.53;;
9467;SDS011;4772;52.382;9.752;2022-11-25T06:49:28;13.33;;;3.97;;
9467;SDS011;4772;52.382;9.752;2022-11-25T06:51:54;10.27;;;3.73;;
9467;SDS011;4772;52.382;9.752;2022-11-25T06:54:20;14.17;;;4.10;;
9467;SDS011;4772;52.382;9.752;2022-11-25T06:56:46;8.60;;;3.10;;
9467;SDS011;4772;52.382;9.752;2022-11-25T06:59:15;12.03;;;3.73;;
9467;SDS011;4772;52.382;9.752;2022-11-25T07:01:42;13.07;;;3.50;;
9467;SDS011;4772;52.382;9.752;2022-11-25T07:04:08;10.23;;;3.90;;
9467;SDS011;4772;52.382;9.752;2022-11-25T07:06:34;12.70;;;3.67;;
9467;SDS011;4772;52.382;9.752;2022-11-25T07:09:00;13.23;;;4.23;;
9467;SDS011;4772;52.382;9.752;2022-11-25T07:11:27;14.43;;;3.97;;
9467;SDS011;4772;52.382;9.752;2022-11-25T07:13:54;11.17;;;3.53;;
9467;SDS011;4772;52.382;9.752;2022-11-25T07:16:20;13.53;;;4.90;;
9467;SDS011;4772;52.382;9.752;2022-11-25T07:18:47;8.50;;;3.53;;
9467;SDS011;4772;52.382;9.752;2022-11-25T07:21:14;11.23;;;3.90;;
9467;SDS011;4772;52.382;9.752;2022-11-25T07:23:41;10.87;;;3.87;;
9467;SDS011;4772;52.382;9.752;2022-11-25T07:26:08;8.37;;;3.43;;
9467;SDS011;4772;52.382;9.752;2022-11-25T07:28:35;17.87;;;4.83;;
9467;SDS011;4772;52.382;9.752;2022-11-25T07:31:08;8.87;;;3.40;;
9467;SDS011;4772;52.382;9.752;2022-11-25T07:33:35;9.43;;;4.47;;
9467;SDS011;4772;52.382;9.752;2022-11-25T07:36:04;9.17;;;3.40;;
9467;SDS011;4772;52.382;9.752;2022-11-25T07:38:31;12.87;;;3.80;;
9467;SDS011;4772;52.382;9.752;2022-11-25T07:41:04;9.63;;;3.90;;
9467;SDS011;4772;52.382;9.752;2022-11-25T07:43:30;13.67;;;3.87;;
9467;SDS011;4772;52.382;9.752;2022-11-25T07:46:07;9.87;;;4.40;;
9467;SDS011;4772;52.382;9.752;2022-11-25T07:48:33;13.63;;;3.67;;
9467;SDS011;4772;52.382;9.752;2022-11-25T07:50:59;10.53;;;3.67;;
9467;SDS011;4772;52.382;9.752;2022-11-25T07:53:25;10.57;;;3.73;;
9467;SDS011;4772;52.382;9.752;2022-11-25T07:55:51;12.60;;;3.73;;
9467;SDS011;4772;52.382;9.752;2022-11-25T07:58:17;10.77;;;4.20;;
9467;SDS011;4772;52.382;9.752;2022-11-25T08:00:43;10.83;;;3.90;;
9467;SDS011;4772;52.382;9.752;2022-11-25T08:03:09;10.97;;;3.60;;
9467;SDS011;4772;52.382;9.752;2022-11-25T08:05:35;13.03;;;3.70;;
9467;SDS011;4772;52.382;9.752;2022-11-25T08:08:01;10.33;;;3.93;;
9467;SDS011;4772;52.382;9.752;2022-11-25T08:10:27;10.10;;;3.17;;
9467;SDS011;4772;52.382;9.752;2022-11-25T08:12:53;14.73;;;4.17;;
9467;SDS011;4772;52.382;9.752;2022-11-25T08:15:19;9.77;;;3.73;;
9467;SDS011;4772;52.382;9.752;2022-11-25T08:17:45;10.90;;;4.17;;
9467;SDS011;4772;52.382;9.752;2022-11-25T08:20:11;10.77;;;3.83;;
9467;SDS011;4772;52.382;9.752;2022-11-25T08:22:37;14.07;;;4.43;;
9467;SDS011;4772;52.382;9.752;2022-11-25T08:25:03;11.00;;;4.00;;
9467;SDS011;4772;52.382;9.752;2022-11-25T08:27:29;12.20;;;3.93;;
9467;SDS011;4772;52.382;9.752;2022-11-25T08:29:55;10.80;;;3.87;;
9467;SDS011;4772;52.382;9.752;2022-11-25T08:32:21;7.00;;;3.33;;
9467;SDS011;4772;52.382;9.752;2022-11-25T08:34:47;12.57;;;3.70;;
9467;SDS011;4772;52.382;9.752;2022-11-25T08:37:13;9.83;;;3.63;;
9467;SDS011;4772;52.382;9.752;2022-11-25T08:39:39;10.67;;;3.87;;
9467;SDS011;4772;52.382;9.752;2022-11-25T08:42:05;10.97;;;3.97;;
9467;SDS011;4772;52.382;9.752;2022-11-25T08:44:31;15.40;;;3.67;;
9467;SDS011;4772;52.382;9.752;2022-11-25T08:46:57;12.93;;;3.80;;
9467;SDS011;4772;52.382;9.752;2022-11-25T08:49:23;6.83;;;3.47;;
9467;SDS011;4772;52.382;9.752;2022-11-25T08:51:51;12.80;;;3.67;;
9467;SDS011;4772;52.382;9.752;2022-11-25T08:54:17;11.50;;;3.43;;
9467;SDS011;4772;52.382;9.752;2022-11-25T08:56:43;9.60;;;3.73;;
9467;SDS011;4772;52.382;9.752;2022-11-25T08:59:09;8.53;;;3.77;;
9467;SDS011;4772;52.382;9.752;2022-11-25T09:01:35;10.87;;;3.80;;
9467;SDS011;4772;52.382;9.752;2022-11-25T09:04:01;10.97;;;3.83;;
9467;SDS011;4772;52.382;9.752;2022-11-25T09:06:27;13.10;;;3.60;;
9467;SDS011;4772;52.382;9.752;2022-11-25T09:08:58;12.27;;;4.63;;
9467;SDS011;4772;52.382;9.752;2022-11-25T09:11:25;11.13;;;3.70;;
9467;SDS011;4772;52.382;9.752;2022-11-25T09:13:51;11.03;;;4.00;;
9467;SDS011;4772;52.382;9.752;2022-11-25T09:16:18;13.60;;;4.57;;
9467;SDS011;4772;52.382;9.752;2022-11-25T09:18:44;10.13;;;4.13;;
9467;SDS011;4772;52.382;9.752;2022-11-25T09:21:11;14.47;;;4.03;;
9467;SDS011;4772;52.382;9.752;2022-11-25T09:23:38;10.07;;;3.50;;
9467;SDS011;4772;52.382;9.752;2022-11-25T09:26:05;14.63;;;3.97;;
9467;SDS011;4772;52.382;9.752;2022-11-25T09:28:31;13.37;;;4.20;;
9467;SDS011;4772;52.382;9.752;2022-11-25T09:30:58;9.10;;;3.83;;
9467;SDS011;4772;52.382;9.752;2022-11-25T09:33:24;11.77;;;4.43;;
9467;SDS011;4772;52.382;9.752;2022-11-25T09:35:50;11.13;;;3.83;;
9467;SDS011;4772;52.382;9.752;2022-11-25T09:38:16;12.53;;;4.10;;
9467;SDS011;4772;52.382;9.752;2022-11-25T09:41:03;9.97;;;4.00;;
9467;SDS011;4772;52.382;9.752;2022-11-25T09:52:03;14.50;;;4.37;;
9467;SDS011;4772;52.382;9.752;2022-11-25T09:54:41;13.20;;;4.90;;
9467;SDS011;4772;52.382;9.752;2022-11-25T09:59:42;12.87;;;4.70;;
9467;SDS011;4772;52.382;9.752;2022-11-25T10:02:11;16.60;;;4.80;;
9467;SDS011;4772;52.382;9.752;2022-11-25T10:04:42;13.33;;;4.07;;
9467;SDS011;4772;52.382;9.752;2022-11-25T10:07:13;14.90;;;4.40;;
9467;SDS011;4772;52.382;9.752;2022-11-25T10:09:42;15.00;;;4.07;;
9467;SDS011;4772;52.382;9.752;2022-11-25T10:12:24;15.40;;;4.07;;
9467;SDS011;4772;52.382;9.752;2022-11-25T10:14:59;16.40;;;4.73;;
9467;SDS011;4772;52.382;9.752;2022-11-25T10:17:34;13.70;;;4.97;;
9467;SDS011;4772;52.382;9.752;2022-11-25T10:20:05;12.73;;;4.73;;
9467;SDS011;4772;52.382;9.752;2022-11-25T10:22:36;12.77;;;4.47;;
9467;SDS011;4772;52.382;9.752;2022-11-25T10:25:17;15.33;;;4.30;;
9467;SDS011;4772;52.382;9.752;2022-11-25T10:30:17;13.03;;;4.50;;
9467;SDS011;4772;52.382;9.752;2022-11-25T10:32:47;12.40;;;4.33;;
9467;SDS011;4772;52.382;9.752;2022-11-25T10:35:27;15.73;;;4.40;;
9467;SDS011;4772;52.382;9.752;2022-11-25T10:37:55;14.60;;;4.60;;
9467;SDS011;4772;52.382;9.752;2022-11-25T10:40:23;13.40;;;4.50;;
9467;SDS011;4772;52.382;9.752;2022-11-25T10:42:49;12.37;;;4.53;;
9467;SDS011;4772;52.382;9.752;2022-11-25T10:45:15;13.60;;;4.77;;
9467;SDS011;4772;52.382;9.752;2022-11-25T10:50:10;13.97;;;4.60;;
9467;SDS011;4772;52.382;9.752;2022-11-25T10:52:49;9.13;;;4.07;;
9467;SDS011;4772;52.382;9.752;2022-11-25T10:55:20;12.60;;;5.00;;
9467;SDS011;4772;52.382;9.752;2022-11-25T10:57:48;17.43;;;5.20;;
9467;SDS011;4772;52.382;9.752;2022-11-25T11:02:55;10.57;;;4.97;;
9467;SDS011;4772;52.382;9.752;2022-11-25T11:05:23;13.40;;;4.53;;
9467;SDS011;4772;52.382;9.752;2022-11-25T11:08:06;13.60;;;5.27;;
9467;SDS011;4772;52.382;9.752;2022-11-25T11:10:33;11.97;;;4.77;;
9467;SDS011;4772;52.382;9.752;2022-11-25T11:13:00;17.73;;;5.00;;
9467;SDS011;4772;52.382;9.752;2022-11-25T11:15:27;13.63;;;5.17;;
9467;SDS011;4772;52.382;9.752;2022-11-25T11:17:54;13.50;;;5.27;;
9467;SDS011;4772;52.382;9.752;2022-11-25T11:23:09;14.97;;;5.33;;
9467;SDS011;4772;52.382;9.752;2022-11-25T11:25:35;13.63;;;4.77;;
9467;SDS011;4772;52.382;9.752;2022-11-25T11:28:02;8.97;;;4.47;;
9467;SDS011;4772;52.382;9.752;2022-11-25T11:30:30;19.63;;;6.00;;
9467;SDS011;4772;52.382;9.752;2022-11-25T11:35:24;11.20;;;5.30;;
9467;SDS011;4772;52.382;9.752;2022-11-25T11:37:53;12.27;;;5.13;;
9467;SDS011;4772;52.382;9.752;2022-11-25T11:40:24;12.70;;;5.20;;
9467;SDS011;4772;52.382;9.752;2022-11-25T11:50:38;15.67;;;5.10;;
9467;SDS011;4772;52.382;9.752;2022-11-25T11:55:53;13.97;;;5.40;;
9467;SDS011;4772;52.382;9.752;2022-11-25T11:58:33;13.00;;;5.17;;
9467;SDS011;4772;52.382;9.752;2022-11-25T12:01:13;15.80;;;5.67;;
9467;SDS011;4772;52.382;9.752;2022-11-25T12:03:59;13.37;;;5.60;;
9467;SDS011;4772;52.382;9.752;2022-11-25T12:06:30;14.03;;;5.07;;
9467;SDS011;4772;52.382;9.752;2022-11-25T12:09:09;12.43;;;5.50;;
9467;SDS011;4772;52.382;9.752;2022-11-25T12:11:40;13.33;;;5.50;;
9467;SDS011;4772;52.382;9.752;2022-11-25T12:16:53;12.70;;;4.90;;
9467;SDS011;4772;52.382;9.752;2022-11-25T12:21:49;12.80;;;5.57;;
9467;SDS011;4772;52.382;9.752;2022-11-25T12:30:06;14.73;;;5.63;;
9467;SDS011;4772;52.382;9.752;2022-11-25T12:35:17;14.20;;;5.20;;
9467;SDS011;4772;52.382;9.752;2022-11-25T12:37:53;13.43;;;5.70;;
9467;SDS011;4772;52.382;9.752;2022-11-25T12:43:04;16.20;;;5.13;;
9467;SDS011;4772;52.382;9.752;2022-11-25T12:45:31;9.90;;;4.47;;
9467;SDS011;4772;52.382;9.752;2022-11-25T12:47:58;8.43;;;4.27;;
9467;SDS011;4772;52.382;9.752;2022-11-25T12:50:35;9.80;;;4.67;;
9467;SDS011;4772;52.382;9.752;2022-11-25T12:53:08;11.17;;;4.70;;
9467;SDS011;4772;52.382;9.752;2022-11-25T12:55:38;8.30;;;4.80;;
9467;SDS011;4772;52.382;9.752;2022-11-25T13:03:41;9.17;;;5.50;;
9467;SDS011;4772;52.382;9.752;2022-11-25T13:06:32;12.50;;;4.97;;
9467;SDS011;4772;52.382;9.752;2022-11-25T13:17:28;10.50;;;5.33;;
9467;SDS011;4772;52.382;9.752;2022-11-25T13:22:41;11.80;;;5.40;;
9467;SDS011;4772;52.382;9.752;2022-11-25T13:25:20;9.77;;;5.13;;
9467;SDS011;4772;52.382;9.752;2022-11-25T13:32:57;11.17;;;6.37;;
9467;SDS011;4772;52.382;9.752;2022-11-25T13:37:49;15.30;;;6.67;;
9467;SDS011;4772;52.382;9.752;2022-11-25T13:40:19;10.57;;;6.53;;
9467;SDS011;4772;52.382;9.752;2022-11-25T13:42:45;10.07;;;5.80;;
9467;SDS011;4772;52.382;9.752;2022-11-25T13:47:53;10.30;;;6.57;;
9467;SDS011;4772;52.382;9.752;2022-11-25T13:50:22;13.80;;;6.43;;
9467;SDS011;4772;52.382;9.752;2022-11-25T13:52:56;12.73;;;6.33;;
9467;SDS011;4772;52.382;9.752;2022-11-25T13:55:25;11.60;;;6.73;;
9467;SDS011;4772;52.382;9.752;2022-11-25T13:58:15;12.93;;;6.53;;
9467;SDS011;4772;52.382;9.752;2022-11-25T14:13:43;13.40;;;7.87;;
9467;SDS011;4772;52.382;9.752;2022-11-25T14:16:19;15.93;;;7.33;;
9467;SDS011;4772;52.382;9.752;2022-11-25T14:18:49;15.87;;;7.60;;
9467;SDS011;4772;52.382;9.752;2022-11-25T14:26:37;15.87;;;9.27;;
9467;SDS011;4772;52.382;9.752;2022-11-25T14:29:07;14.90;;;7.67;;
9467;SDS011;4772;52.382;9.752;2022-11-25T14:31:45;15.40;;;7.70;;
9467;SDS011;4772;52.382;9.752;2022-11-25T14:34:15;11.57;;;7.03;;
9467;SDS011;4772;52.382;9.752;2022-11-25T14:36:43;11.60;;;7.80;;
9467;SDS011;4772;52.382;9.752;2022-11-25T14:39:56;10.80;;;7.67;;
9467;SDS011;4772;52.382;9.752;2022-11-25T14:42:04;12.90;;;7.80;;
9467;SDS011;4772;52.382;9.752;2022-11-25T14:44:33;15.13;;;8.73;;
9467;SDS011;4772;52.382;9.752;2022-11-25T14:47:09;14.23;;;8.67;;
9467;SDS011;4772;52.382;9.752;2022-11-25T14:49:48;12.03;;;7.77;;
9467;SDS011;4772;52.382;9.752;2022-11-25T14:52:17;12.47;;;7.97;;
9467;SDS011;4772;52.382;9.752;2022-11-25T14:54:44;14.77;;;8.57;;
9467;SDS011;4772;52.382;9.752;2022-11-25T14:57:10;15.17;;;7.73;;
9467;SDS011;4772;52.382;9.752;2022-11-25T14:59:36;16.13;;;8.57;;
9467;SDS011;4772;52.382;9.752;2022-11-25T15:02:03;11.83;;;8.30;;
9467;SDS011;4772;52.382;9.752;2022-11-25T15:04:30;15.43;;;8.57;;
9467;SDS011;4772;52.382;9.752;2022-11-25T15:06:57;17.33;;;8.30;;
9467;SDS011;4772;52.382;9.752;2022-11-25T15:11:55;16.23;;;9.40;;
9467;SDS011;4772;52.382;9.752;2022-11-25T15:14:40;17.07;;;10.83;;
9467;SDS011;4772;52.382;9.752;2022-11-25T15:17:07;21.50;;;10.60;;
9467;SDS011;4772;52.382;9.752;2022-11-25T15:19:34;18.30;;;10.27;;
9467;SDS011;4772;52.382;9.752;2022-11-25T15:22:02;17.90;;;10.83;;
9467;SDS011;4772;52.382;9.752;2022-11-25T15:24:29;19.50;;;10.17;;
9467;SDS011;4772;52.382;9.752;2022-11-25T15:26:57;17.90;;;10.30;;
9467;SDS011;4772;52.382;9.752;2022-11-25T15:29:24;16.33;;;10.82;;
9467;SDS011;4772;52.382;9.752;2022-11-25T15:31:50;18.87;;;11.00;;
9467;SDS011;4772;52.382;9.752;2022-11-25T15:34:17;18.23;;;10.80;;
9467;SDS011;4772;52.382;9.752;2022-11-25T15:36:44;21.57;;;12.80;;
9467;SDS011;4772;52.382;9.752;2022-11-25T15:41:49;21.37;;;13.17;;
9467;SDS011;4772;52.382;9.752;2022-11-25T15:44:26;22.17;;;12.33;;
9467;SDS011;4772;52.382;9.752;2022-11-25T15:46:54;20.67;;;11.67;;
9467;SDS011;4772;52.382;9.752;2022-11-25T15:49:22;20.87;;;12.30;;
9467;SDS011;4772;52.382;9.752;2022-11-25T15:51:49;16.50;;;11.90;;
9467;SDS011;4772;52.382;9.752;2022-11-25T15:54:17;16.97;;;12.43;;
9467;SDS011;4772;52.382;9.752;2022-11-25T15:56:45;18.00;;;12.43;;
9467;SDS011;4772;52.382;9.752;2022-11-25T16:00:01;21.07;;;12.87;;
9467;SDS011;4772;52.382;9.752;2022-11-25T16:02:02;19.00;;;12.87;;
9467;SDS011;4772;52.382;9.752;2022-11-25T16:04:28;21.63;;;13.93;;
9467;SDS011;4772;52.382;9.752;2022-11-25T16:06:55;21.43;;;12.93;;
9467;SDS011;4772;52.382;9.752;2022-11-25T16:09:22;19.83;;;13.33;;
9467;SDS011;4772;52.382;9.752;2022-11-25T16:11:51;23.50;;;13.37;;
9467;SDS011;4772;52.382;9.752;2022-11-25T16:16:44;18.90;;;13.53;;
9467;SDS011;4772;52.382;9.752;2022-11-25T16:19:15;22.27;;;12.87;;
9467;SDS011;4772;52.382;9.752;2022-11-25T16:24:12;17.40;;;12.43;;
9467;SDS011;4772;52.382;9.752;2022-11-25T16:26:54;20.73;;;11.70;;
9467;SDS011;4772;52.382;9.752;2022-11-25T16:31:56;17.43;;;11.33;;
9467;SDS011;4772;52.382;9.752;2022-11-25T16:34:22;19.90;;;12.70;;
9467;SDS011;4772;52.382;9.752;2022-11-25T16:36:49;19.50;;;11.87;;
9467;SDS011;4772;52.382;9.752;2022-11-25T16:39:15;20.93;;;14.90;;
9467;SDS011;4772;52.382;9.752;2022-11-25T16:41:41;15.47;;;11.90;;
9467;SDS011;4772;52.382;9.752;2022-11-25T16:44:13;21.80;;;12.90;;
9467;SDS011;4772;52.382;9.752;2022-11-25T16:46:42;19.43;;;12.60;;
9467;SDS011;4772;52.382;9.752;2022-11-25T16:49:15;17.93;;;11.80;;
9467;SDS011;4772;52.382;9.752;2022-11-25T16:51:41;18.50;;;12.47;;
9467;SDS011;4772;52.382;9.752;2022-11-25T16:54:07;15.90;;;12.47;;
9467;SDS011;4772;52.382;9.752;2022-11-25T16:56:35;21.57;;;12.97;;
9467;SDS011;4772;52.382;9.752;2022-11-25T16:59:02;18.47;;;12.73;;